Time;durP1;ratioP1;P1;durP2;ratioP2;P2;SDS_P1;SDS_P2;PMS_P1;PMS_P2;Temp;Humidity;BMP_temperature;BMP_pressure;BME280_temperature;BME280_humidity;BME280_pressure;Samples;Min_cycle;Max_cycle;Signal;HPM_P1;HPM_P2
2023/12/18 00:01:15;;;;;;;12.35;4.72;;;;;;;;;;5044718;28;20087;-58
2023/12/18 00:03:40;;;;;;;12.95;4.78;;;;;;;;;;5046365;28;20029;-59
2023/12/18 00:06:07;;;;;;;10.48;5.07;;;;;;;;;;5045496;28;20032;-60
2023/12/18 00:08:33;;;;;;;10.23;4.65;;;;;;;;;;5030768;28;20033;-60
2023/12/18 00:10:58;;;;;;;10.60;5.15;;;;;;;;;;5042290;28;20147;-60
2023/12/18 00:13:24;;;;;;;13.55;5.30;;;;;;;;;;5049865;28;20499;-58
2023/12/18 00:15:49;;;;;;;11.57;4.93;;;;;;;;;;5026967;28;20056;-59
2023/12/18 00:18:14;;;;;;;10.25;5.05;;;;;;;;;;5048626;28;20040;-56
2023/12/18 00:20:40;;;;;;;11.60;5.13;;;;;;;;;;5044161;28;21054;-55
2023/12/18 00:23:05;;;;;;;11.75;4.65;;;;;;;;;;5050505;28;20025;-54
2023/12/18 00:25:31;;;;;;;9.25;4.85;;;;;;;;;;5047133;28;20026;-57
2023/12/18 00:27:56;;;;;;;9.07;4.53;;;;;;;;;;5051789;28;20029;-53
2023/12/18 00:30:22;;;;;;;8.43;4.63;;;;;;;;;;5047666;28;20036;-59
2023/12/18 00:32:47;;;;;;;8.52;4.63;;;;;;;;;;5047587;28;20482;-54
2023/12/18 00:35:13;;;;;;;8.82;4.55;;;;;;;;;;5049641;28;20032;-57
2023/12/18 00:37:38;;;;;;;9.63;4.20;;;;;;;;;;5049364;28;20055;-57
2023/12/18 00:40:04;;;;;;;12.57;5.07;;;;;;;;;;5051489;28;20539;-54
2023/12/18 00:42:29;;;;;;;7.13;4.13;;;;;;;;;;5048127;28;20025;-56
2023/12/18 00:44:54;;;;;;;10.98;5.20;;;;;;;;;;5042710;28;20056;-53
2023/12/18 00:47:20;;;;;;;10.77;3.92;;;;;;;;;;5046389;28;20063;-60
2023/12/18 00:49:45;;;;;;;14.10;5.70;;;;;;;;;;5047753;28;20085;-61
2023/12/18 00:52:11;;;;;;;12.75;5.30;;;;;;;;;;5047363;28;20464;-56
2023/12/18 00:54:36;;;;;;;9.95;5.32;;;;;;;;;;5022821;28;20104;-57
2023/12/18 00:57:01;;;;;;;10.52;5.13;;;;;;;;;;5012541;28;20362;-55
2023/12/18 00:59:27;;;;;;;13.48;4.85;;;;;;;;;;5011091;28;20033;-60
2023/12/18 01:01:53;;;;;;;8.65;4.55;;;;;;;;;;5011821;28;20026;-57
2023/12/18 01:04:18;;;;;;;11.13;5.72;;;;;;;;;;5025118;28;20480;-58
2023/12/18 01:06:44;;;;;;;13.50;5.47;;;;;;;;;;5030376;28;20068;-58
2023/12/18 01:09:09;;;;;;;11.55;4.97;;;;;;;;;;5012337;28;20030;-57
2023/12/18 01:11:35;;;;;;;14.00;5.13;;;;;;;;;;5010986;28;20464;-58
2023/12/18 01:14:00;;;;;;;14.70;5.70;;;;;;;;;;5022176;28;20360;-58
2023/12/18 01:16:26;;;;;;;15.70;5.45;;;;;;;;;;5030940;28;20092;-60
2023/12/18 01:18:51;;;;;;;10.73;4.57;;;;;;;;;;5012936;28;20040;-58
2023/12/18 01:21:17;;;;;;;11.50;4.97;;;;;;;;;;5035029;28;20045;-58
2023/12/18 01:23:42;;;;;;;10.15;3.70;;;;;;;;;;5034503;28;20030;-59
2023/12/18 01:26:07;;;;;;;10.90;5.28;;;;;;;;;;5035303;28;20021;-58
2023/12/18 01:28:33;;;;;;;11.65;5.25;;;;;;;;;;5034398;28;20112;-56
2023/12/18 01:30:58;;;;;;;12.35;5.10;;;;;;;;;;5034530;28;20061;-58
2023/12/18 01:33:24;;;;;;;12.55;5.28;;;;;;;;;;5034393;28;20053;-58
2023/12/18 01:35:49;;;;;;;12.55;5.25;;;;;;;;;;5034444;28;20112;-56
2023/12/18 01:38:14;;;;;;;8.98;4.45;;;;;;;;;;5030772;28;20030;-58
2023/12/18 01:40:40;;;;;;;14.48;4.53;;;;;;;;;;5033752;28;20442;-58
2023/12/18 01:43:24;;;;;;;13.50;5.78;;;;;;;;;;5033517;28;20083;-56
2023/12/18 01:45:55;;;;;;;10.95;5.03;;;;;;;;;;5013120;28;20541;-59
2023/12/18 01:48:21;;;;;;;;;;;;;;;;;;5020490;28;20476;-56
2023/12/18 01:50:46;;;;;;;15.25;5.50;;;;;;;;;;5034009;28;19974;-58
2023/12/18 01:53:11;;;;;;;13.05;5.68;;;;;;;;;;5034780;28;20040;-60
2023/12/18 01:55:37;;;;;;;9.80;4.72;;;;;;;;;;5020404;28;20067;-60
2023/12/18 01:58:02;;;;;;;10.70;3.80;;;;;;;;;;5014851;28;20113;-59
2023/12/18 02:00:28;;;;;;;10.57;4.70;;;;;;;;;;5014535;28;20026;-59
2023/12/18 02:02:54;;;;;;;11.32;4.80;;;;;;;;;;5018184;28;20029;-58
2023/12/18 02:05:19;;;;;;;8.95;4.28;;;;;;;;;;5030937;28;20373;-59
2023/12/18 02:07:46;;;;;;;12.43;5.40;;;;;;;;;;5022753;28;20038;-60
2023/12/18 02:10:11;;;;;;;13.23;5.38;;;;;;;;;;5050090;28;20037;-58
2023/12/18 02:12:36;;;;;;;12.50;5.53;;;;;;;;;;5050187;28;20044;-59
2023/12/18 02:15:02;;;;;;;14.15;5.85;;;;;;;;;;5053396;28;20387;-59
2023/12/18 02:17:27;;;;;;;11.05;4.65;;;;;;;;;;5039732;28;20033;-60
2023/12/18 02:20:04;;;;;;;12.73;5.22;;;;;;;;;;5043024;28;20435;-59
2023/12/18 02:22:35;;;;;;;9.32;4.95;;;;;;;;;;5050243;28;20028;-60
2023/12/18 02:25:01;;;;;;;13.20;5.95;;;;;;;;;;5052746;28;20115;-59
2023/12/18 02:27:26;;;;;;;16.13;7.55;;;;;;;;;;5052271;28;20120;-59
2023/12/18 02:29:51;;;;;;;11.65;4.80;;;;;;;;;;5035269;28;20033;-58
2023/12/18 02:32:17;;;;;;;20.25;7.68;;;;;;;;;;5048697;28;20087;-58
2023/12/18 02:34:42;;;;;;;12.10;5.93;;;;;;;;;;5047468;28;20040;-58
2023/12/18 02:37:07;;;;;;;17.67;7.57;;;;;;;;;;5050094;28;20025;-58
2023/12/18 02:39:33;;;;;;;16.63;6.85;;;;;;;;;;5046366;28;20116;-59
2023/12/18 02:41:58;;;;;;;16.67;7.60;;;;;;;;;;5049897;28;20476;-58
2023/12/18 02:44:24;;;;;;;18.70;6.93;;;;;;;;;;5039615;28;20037;-59
2023/12/18 02:46:49;;;;;;;15.45;6.95;;;;;;;;;;5045761;28;20116;-58
2023/12/18 02:49:15;;;;;;;18.33;8.85;;;;;;;;;;5053680;28;20040;-57
2023/12/18 02:51:41;;;;;;;25.02;8.90;;;;;;;;;;5044969;28;20049;-57
2023/12/18 02:54:06;;;;;;;20.13;10.60;;;;;;;;;;5033929;28;20087;-58
2023/12/18 02:56:31;;;;;;;26.08;10.40;;;;;;;;;;5041964;28;20040;-60
2023/12/18 02:58:57;;;;;;;14.80;7.50;;;;;;;;;;5051178;28;20029;-57
2023/12/18 03:01:22;;;;;;;15.27;7.00;;;;;;;;;;5046627;28;20033;-59
2023/12/18 03:03:48;;;;;;;19.15;8.70;;;;;;;;;;5046364;28;20025;-58
2023/12/18 03:06:13;;;;;;;18.20;8.70;;;;;;;;;;5041275;28;20033;-58
2023/12/18 03:08:39;;;;;;;20.08;8.50;;;;;;;;;;5041692;28;20041;-57
2023/12/18 03:11:04;;;;;;;17.45;8.50;;;;;;;;;;5043561;28;20037;-59
2023/12/18 03:13:30;;;;;;;18.88;8.20;;;;;;;;;;5049619;28;20163;-58
2023/12/18 03:15:55;;;;;;;16.65;7.85;;;;;;;;;;5044244;28;20033;-58
2023/12/18 03:18:21;;;;;;;16.05;8.30;;;;;;;;;;5051671;28;20040;-59
2023/12/18 03:20:47;;;;;;;20.02;8.77;;;;;;;;;;5050522;28;20483;-56
2023/12/18 03:23:12;;;;;;;18.17;6.93;;;;;;;;;;5033212;28;20041;-58
2023/12/18 03:25:37;;;;;;;25.77;8.70;;;;;;;;;;5052127;28;20090;-58
2023/12/18 03:28:03;;;;;;;17.63;8.60;;;;;;;;;;5049524;28;20122;-56
2023/12/18 03:30:28;;;;;;;20.92;9.50;;;;;;;;;;5047943;28;20132;-58
2023/12/18 03:32:55;;;;;;;19.08;7.97;;;;;;;;;;5051760;28;20309;-58
2023/12/18 03:35:20;;;;;;;18.60;8.93;;;;;;;;;;5039921;28;20481;-59
2023/12/18 03:37:46;;;;;;;17.65;7.68;;;;;;;;;;5041133;28;20066;-59
2023/12/18 03:40:11;;;;;;;19.67;7.55;;;;;;;;;;5046155;28;20045;-58
2023/12/18 03:42:38;;;;;;;16.05;7.57;;;;;;;;;;5044666;28;20040;-59
2023/12/18 03:45:04;;;;;;;19.83;9.15;;;;;;;;;;5025922;28;20041;-57
2023/12/18 03:47:30;;;;;;;19.38;8.45;;;;;;;;;;5048961;28;20052;-58
2023/12/18 03:49:55;;;;;;;18.40;7.15;;;;;;;;;;5047623;28;20031;-59
2023/12/18 03:52:20;;;;;;;15.65;7.60;;;;;;;;;;5052155;28;20060;-55
2023/12/18 03:54:46;;;;;;;21.33;8.57;;;;;;;;;;5048468;28;20443;-57
2023/12/18 03:57:11;;;;;;;16.45;7.43;;;;;;;;;;5043882;28;20029;-56
2023/12/18 03:59:36;;;;;;;10.65;6.13;;;;;;;;;;5044565;28;20029;-59
2023/12/18 04:02:02;;;;;;;19.42;8.30;;;;;;;;;;5012787;28;20488;-58
2023/12/18 04:04:27;;;;;;;14.20;7.03;;;;;;;;;;5026963;28;20041;-56
2023/12/18 04:06:53;;;;;;;18.17;8.30;;;;;;;;;;5026479;28;20083;-56
2023/12/18 04:09:18;;;;;;;22.38;10.07;;;;;;;;;;5012173;28;20459;-58
2023/12/18 04:11:48;;;;;;;18.67;9.35;;;;;;;;;;5031075;28;20090;-59
2023/12/18 04:14:13;;;;;;;19.90;9.93;;;;;;;;;;5031276;28;20061;-59
2023/12/18 04:16:38;;;;;;;18.77;9.60;;;;;;;;;;5050772;28;20494;-59
2023/12/18 04:19:04;;;;;;;20.25;8.63;;;;;;;;;;5031537;28;20052;-58
2023/12/18 04:21:30;;;;;;;20.02;9.23;;;;;;;;;;5051470;28;20073;-58
2023/12/18 04:23:56;;;;;;;15.32;7.35;;;;;;;;;;5043901;28;20079;-58
2023/12/18 04:26:21;;;;;;;16.48;6.85;;;;;;;;;;5029033;28;20037;-59
2023/12/18 04:28:47;;;;;;;16.98;7.15;;;;;;;;;;5011787;28;20093;-59
2023/12/18 04:31:17;;;;;;;13.02;6.82;;;;;;;;;;5012330;28;20038;-58
2023/12/18 04:33:42;;;;;;;19.20;9.77;;;;;;;;;;5011570;28;20099;-57
2023/12/18 04:36:08;;;;;;;19.13;8.27;;;;;;;;;;5012146;28;20330;-57
2023/12/18 04:38:34;;;;;;;15.95;7.45;;;;;;;;;;5012550;28;20392;-58
2023/12/18 04:40:59;;;;;;;26.20;8.57;;;;;;;;;;5022248;28;20025;-57
2023/12/18 04:43:27;;;;;;;19.02;9.60;;;;;;;;;;5012040;28;20121;-58
2023/12/18 04:45:53;;;;;;;13.05;6.72;;;;;;;;;;5011123;28;20052;-58
2023/12/18 04:48:18;;;;;;;18.40;9.35;;;;;;;;;;5010660;28;20034;-54
2023/12/18 04:50:44;;;;;;;14.40;7.63;;;;;;;;;;5010743;28;20030;-59
2023/12/18 04:53:10;;;;;;;17.58;8.38;;;;;;;;;;5010075;28;20497;-59
2023/12/18 04:55:35;;;;;;;18.20;8.95;;;;;;;;;;5016275;28;20109;-60
2023/12/18 04:58:01;;;;;;;18.13;8.52;;;;;;;;;;5019308;28;20468;-58
2023/12/18 05:00:29;;;;;;;20.73;10.23;;;;;;;;;;5015359;28;20033;-57
2023/12/18 05:02:54;;;;;;;18.80;8.10;;;;;;;;;;5030490;28;20508;-59
2023/12/18 05:05:20;;;;;;;17.73;7.95;;;;;;;;;;5031649;28;20064;-59
2023/12/18 05:07:45;;;;;;;18.00;9.48;;;;;;;;;;5030893;28;20037;-56
2023/12/18 05:10:11;;;;;;;19.85;9.38;;;;;;;;;;5031510;28;20030;-59
2023/12/18 05:12:36;;;;;;;16.50;8.20;;;;;;;;;;5031073;28;20456;-58
2023/12/18 05:15:02;;;;;;;17.45;8.35;;;;;;;;;;5028627;28;20207;-58
2023/12/18 05:17:27;;;;;;;26.63;11.23;;;;;;;;;;5031493;28;20037;-58
2023/12/18 05:19:52;;;;;;;22.02;10.05;;;;;;;;;;5029580;28;20041;-59
2023/12/18 05:22:18;;;;;;;21.67;8.55;;;;;;;;;;5031457;28;20033;-57
2023/12/18 05:24:43;;;;;;;24.58;9.48;;;;;;;;;;5030652;28;20375;-60
2023/12/18 05:27:08;;;;;;;17.77;8.60;;;;;;;;;;5031404;28;20032;-59
2023/12/18 05:29:37;;;;;;;16.00;7.85;;;;;;;;;;5029612;28;20107;-59
2023/12/18 05:32:02;;;;;;;19.05;10.50;;;;;;;;;;5030493;28;20029;-59
2023/12/18 05:34:28;;;;;;;27.40;11.55;;;;;;;;;;5030000;28;20045;-59
2023/12/18 05:36:54;;;;;;;24.67;10.88;;;;;;;;;;5029242;28;20041;-55
2023/12/18 05:39:19;;;;;;;25.98;12.35;;;;;;;;;;5019509;28;20060;-60
2023/12/18 05:41:45;;;;;;;26.92;12.18;;;;;;;;;;5021862;28;20524;-60
2023/12/18 05:44:10;;;;;;;20.75;10.15;;;;;;;;;;5031254;28;20030;-60
2023/12/18 05:46:36;;;;;;;20.85;10.75;;;;;;;;;;5021763;28;20036;-60
2023/12/18 05:49:01;;;;;;;23.35;10.80;;;;;;;;;;5009167;28;20164;-58
2023/12/18 05:51:27;;;;;;;27.10;9.85;;;;;;;;;;5011577;28;20038;-60
2023/12/18 05:53:52;;;;;;;19.10;9.20;;;;;;;;;;5010723;28;20384;-58
2023/12/18 05:56:17;;;;;;;26.05;11.30;;;;;;;;;;5013952;28;20396;-57
2023/12/18 05:58:43;;;;;;;24.83;11.75;;;;;;;;;;5030337;28;20041;-60
2023/12/18 06:01:08;;;;;;;20.83;9.55;;;;;;;;;;5030624;28;20037;-60
2023/12/18 06:03:34;;;;;;;17.50;9.93;;;;;;;;;;5030587;28;20040;-60
2023/12/18 06:06:00;;;;;;;19.63;9.57;;;;;;;;;;5031944;28;20495;-60
2023/12/18 06:08:25;;;;;;;22.83;11.45;;;;;;;;;;5014412;28;20034;-60
2023/12/18 06:10:50;;;;;;;24.92;10.38;;;;;;;;;;5012716;28;20030;-60
2023/12/18 06:13:16;;;;;;;28.70;12.45;;;;;;;;;;5014930;28;20038;-60
2023/12/18 06:15:41;;;;;;;26.40;12.05;;;;;;;;;;5013566;28;20445;-58
2023/12/18 06:18:09;;;;;;;25.70;11.50;;;;;;;;;;5030714;28;20037;-60
2023/12/18 06:20:35;;;;;;;27.20;12.05;;;;;;;;;;5033012;28;20049;-59
2023/12/18 06:23:01;;;;;;;28.33;11.88;;;;;;;;;;5033447;28;20033;-59
2023/12/18 06:25:26;;;;;;;24.23;11.13;;;;;;;;;;5034142;28;20035;-60
2023/12/18 06:27:51;;;;;;;21.80;10.90;;;;;;;;;;5032524;28;20030;-58
2023/12/18 06:30:17;;;;;;;22.27;11.32;;;;;;;;;;5033665;28;20120;-60
2023/12/18 06:32:42;;;;;;;28.23;12.70;;;;;;;;;;5034027;28;20029;-57
2023/12/18 06:35:08;;;;;;;28.05;13.40;;;;;;;;;;5033323;28;20033;-58
2023/12/18 06:37:33;;;;;;;19.38;8.75;;;;;;;;;;5027569;28;20120;-57
2023/12/18 06:39:59;;;;;;;19.75;10.00;;;;;;;;;;5012837;28;20026;-61
2023/12/18 06:42:24;;;;;;;24.60;11.20;;;;;;;;;;5018649;28;20463;-62
2023/12/18 06:44:50;;;;;;;26.15;12.43;;;;;;;;;;5030172;28;20057;-60
2023/12/18 06:47:15;;;;;;;25.90;11.85;;;;;;;;;;5033460;28;20447;-61
2023/12/18 06:49:40;;;;;;;21.38;11.15;;;;;;;;;;5033201;28;20057;-62
2023/12/18 06:52:06;;;;;;;32.40;13.00;;;;;;;;;;5031064;28;20038;-62
2023/12/18 06:54:33;;;;;;;21.27;10.32;;;;;;;;;;5031949;28;20040;-61
2023/12/18 06:56:58;;;;;;;25.63;12.20;;;;;;;;;;5031133;28;20025;-61
2023/12/18 06:59:24;;;;;;;28.67;12.90;;;;;;;;;;5032085;28;20392;-61
2023/12/18 07:01:49;;;;;;;21.73;11.05;;;;;;;;;;5026638;28;20054;-60
2023/12/18 07:04:15;;;;;;;28.17;12.27;;;;;;;;;;5013211;28;20427;-62
2023/12/18 07:06:40;;;;;;;20.83;8.55;;;;;;;;;;5016348;28;20124;-62
2023/12/18 07:09:06;;;;;;;23.88;11.93;;;;;;;;;;5012781;28;20042;-62
2023/12/18 07:11:31;;;;;;;20.27;9.25;;;;;;;;;;5016653;28;20034;-62
2023/12/18 07:13:57;;;;;;;26.08;11.35;;;;;;;;;;5012600;28;20065;-62
2023/12/18 07:16:22;;;;;;;28.95;11.98;;;;;;;;;;5027749;28;20029;-59
2023/12/18 07:18:48;;;;;;;27.80;12.00;;;;;;;;;;5022748;28;20082;-61
2023/12/18 07:21:13;;;;;;;25.33;11.32;;;;;;;;;;5029325;28;20037;-61
2023/12/18 07:23:40;;;;;;;31.35;13.93;;;;;;;;;;5023228;28;20384;-60
2023/12/18 07:26:08;;;;;;;25.48;12.63;;;;;;;;;;5023532;28;20049;-61
2023/12/18 07:28:34;;;;;;;21.15;10.05;;;;;;;;;;5031334;28;20373;-61
2023/12/18 07:30:59;;;;;;;32.15;14.07;;;;;;;;;;5031945;28;20036;-60
2023/12/18 07:33:25;;;;;;;24.67;10.82;;;;;;;;;;5015480;28;20461;-61
2023/12/18 07:35:52;;;;;;;26.70;11.13;;;;;;;;;;5012327;28;20025;-61
2023/12/18 07:38:17;;;;;;;28.08;11.88;;;;;;;;;;5029893;28;20033;-61
2023/12/18 07:40:43;;;;;;;30.70;13.88;;;;;;;;;;5032393;28;20468;-61
2023/12/18 07:43:08;;;;;;;30.58;13.35;;;;;;;;;;5031587;28;20735;-61
2023/12/18 07:45:34;;;;;;;29.38;12.55;;;;;;;;;;5017997;28;20145;-62
2023/12/18 07:47:59;;;;;;;20.42;9.68;;;;;;;;;;5024695;28;20029;-62
2023/12/18 07:50:31;;;;;;;28.40;13.35;;;;;;;;;;5022049;28;20033;-62
2023/12/18 07:52:56;;;;;;;26.60;12.23;;;;;;;;;;5031660;28;20104;-61
2023/12/18 07:55:21;;;;;;;23.77;11.57;;;;;;;;;;5032595;28;20125;-61
2023/12/18 07:57:47;;;;;;;27.00;12.02;;;;;;;;;;5031287;28;20076;-61
2023/12/18 08:00:13;;;;;;;33.15;14.25;;;;;;;;;;5030473;28;20044;-61
2023/12/18 08:02:39;;;;;;;17.95;8.95;;;;;;;;;;5031061;28;20035;-61
2023/12/18 08:05:04;;;;;;;27.13;12.20;;;;;;;;;;5015195;28;20034;-61
2023/12/18 08:07:30;;;;;;;27.00;11.18;;;;;;;;;;5028073;28;20438;-61
2023/12/18 08:09:55;;;;;;;21.98;10.43;;;;;;;;;;5030046;28;20057;-61
2023/12/18 08:12:20;;;;;;;22.48;10.40;;;;;;;;;;5028990;28;20439;-62
2023/12/18 08:14:49;;;;;;;22.08;10.48;;;;;;;;;;5014186;28;20041;-61
2023/12/18 08:17:15;;;;;;;25.27;12.32;;;;;;;;;;5018515;28;20033;-60
2023/12/18 08:19:48;;;;;;;28.92;13.75;;;;;;;;;;5012458;28;20041;-61
2023/12/18 08:22:14;;;;;;;20.13;11.20;;;;;;;;;;5026635;28;20032;-60
2023/12/18 08:24:40;;;;;;;27.98;13.02;;;;;;;;;;5026862;28;20117;-61
2023/12/18 08:27:07;;;;;;;28.10;13.48;;;;;;;;;;5011508;28;20112;-60
2023/12/18 08:29:32;;;;;;;33.15;13.77;;;;;;;;;;5011933;28;20030;-57
2023/12/18 08:31:58;;;;;;;25.88;12.52;;;;;;;;;;5011793;28;20474;-61
2023/12/18 08:34:26;;;;;;;30.70;13.95;;;;;;;;;;5030200;28;20394;-61
2023/12/18 08:36:53;;;;;;;20.60;9.80;;;;;;;;;;5030634;28;20048;-61
2023/12/18 08:39:18;;;;;;;29.20;12.13;;;;;;;;;;5031465;28;20427;-61
2023/12/18 08:41:46;;;;;;;25.52;12.38;;;;;;;;;;5030182;28;20623;-61
2023/12/18 08:44:11;;;;;;;17.55;9.23;;;;;;;;;;5030726;28;20044;-59
2023/12/18 08:46:37;;;;;;;26.88;11.52;;;;;;;;;;5025496;28;20034;-62
2023/12/18 08:49:03;;;;;;;25.02;12.93;;;;;;;;;;5014223;28;20427;-61
2023/12/18 08:51:28;;;;;;;35.10;13.70;;;;;;;;;;5021520;28;20044;-62
2023/12/18 08:53:54;;;;;;;24.02;11.85;;;;;;;;;;5030161;28;20040;-61
2023/12/18 08:56:20;;;;;;;21.90;10.05;;;;;;;;;;5031483;28;20036;-62
2023/12/18 08:58:46;;;;;;;29.63;12.50;;;;;;;;;;5021800;28;20037;-61
2023/12/18 09:01:11;;;;;;;25.08;11.95;;;;;;;;;;5011046;28;20175;-61
2023/12/18 09:03:36;;;;;;;23.98;12.55;;;;;;;;;;5011345;28;20029;-61
2023/12/18 09:06:02;;;;;;;27.10;13.60;;;;;;;;;;5010984;28;20133;-61
2023/12/18 09:08:29;;;;;;;25.15;11.75;;;;;;;;;;5022515;28;20034;-62
2023/12/18 09:10:55;;;;;;;25.27;12.55;;;;;;;;;;5028291;28;20045;-62
2023/12/18 09:13:20;;;;;;;23.77;11.95;;;;;;;;;;5031044;28;20107;-62
2023/12/18 09:15:46;;;;;;;27.02;12.65;;;;;;;;;;5031111;28;20025;-64
2023/12/18 09:18:11;;;;;;;17.85;9.63;;;;;;;;;;5029032;28;20035;-62
2023/12/18 09:20:36;;;;;;;20.10;9.05;;;;;;;;;;5030716;28;20106;-61
2023/12/18 09:23:05;;;;;;;25.40;12.45;;;;;;;;;;5020464;28;20045;-61
2023/12/18 09:25:30;;;;;;;25.17;11.15;;;;;;;;;;5024113;28;20472;-61
2023/12/18 09:27:56;;;;;;;22.27;11.18;;;;;;;;;;5029284;28;20034;-60
2023/12/18 09:30:21;;;;;;;25.98;12.38;;;;;;;;;;5026304;28;20026;-61
2023/12/18 09:32:46;;;;;;;24.27;10.52;;;;;;;;;;5029190;28;20460;-62
2023/12/18 09:35:12;;;;;;;21.70;9.20;;;;;;;;;;5023421;28;20087;-60
2023/12/18 09:37:37;;;;;;;15.13;7.07;;;;;;;;;;5011397;28;20030;-61
2023/12/18 09:40:06;;;;;;;21.80;10.57;;;;;;;;;;5017067;28;20391;-60
2023/12/18 09:42:32;;;;;;;22.58;9.93;;;;;;;;;;5029772;28;20029;-61
2023/12/18 09:44:59;;;;;;;28.25;12.13;;;;;;;;;;5031043;28;20040;-61
2023/12/18 09:47:26;;;;;;;19.00;9.80;;;;;;;;;;5014536;28;20049;-61
2023/12/18 09:49:54;;;;;;;25.63;11.52;;;;;;;;;;5018167;28;20033;-62
2023/12/18 09:52:22;;;;;;;25.80;12.52;;;;;;;;;;5028523;28;20037;-62
2023/12/18 09:54:49;;;;;;;22.67;10.40;;;;;;;;;;5034174;28;20088;-61
2023/12/18 09:57:19;;;;;;;16.80;8.25;;;;;;;;;;5033736;28;20044;-61
2023/12/18 09:59:45;;;;;;;28.87;13.03;;;;;;;;;;5026163;28;20034;-61
2023/12/18 10:02:14;;;;;;;27.45;12.23;;;;;;;;;;5021611;28;20022;-60
2023/12/18 10:04:41;;;;;;;21.55;9.95;;;;;;;;;;5032796;28;20120;-62
2023/12/18 10:07:09;;;;;;;22.48;10.65;;;;;;;;;;5033058;28;20069;-60
2023/12/18 10:09:35;;;;;;;24.25;11.85;;;;;;;;;;5032966;28;20034;-61
2023/12/18 10:12:06;;;;;;;28.52;13.23;;;;;;;;;;5033497;28;20464;-61
2023/12/18 10:14:31;;;;;;;21.50;10.45;;;;;;;;;;5032919;28;20087;-62
2023/12/18 10:16:56;;;;;;;18.00;9.30;;;;;;;;;;5031558;28;20038;-60
2023/12/18 10:19:27;;;;;;;20.63;11.02;;;;;;;;;;5034035;28;20104;-61
2023/12/18 10:21:55;;;;;;;22.35;10.55;;;;;;;;;;5033635;28;20124;-60
2023/12/18 10:24:21;;;;;;;17.23;8.73;;;;;;;;;;5033397;28;20038;-58
2023/12/18 10:26:47;;;;;;;23.63;10.70;;;;;;;;;;5024682;28;20034;-61
2023/12/18 10:29:13;;;;;;;24.77;9.93;;;;;;;;;;5031230;28;20025;-61
2023/12/18 10:31:38;;;;;;;20.52;10.68;;;;;;;;;;5031713;28;20029;-60
2023/12/18 10:34:05;;;;;;;26.30;10.93;;;;;;;;;;5030836;28;20076;-59
2023/12/18 10:36:33;;;;;;;22.33;11.52;;;;;;;;;;5033639;28;20025;-62
2023/12/18 10:39:00;;;;;;;18.50;8.93;;;;;;;;;;5031347;28;20100;-56
2023/12/18 10:41:28;;;;;;;23.83;11.05;;;;;;;;;;5024042;28;20118;-60
2023/12/18 10:43:55;;;;;;;21.65;9.93;;;;;;;;;;5017832;28;20033;-58
2023/12/18 10:46:24;;;;;;;24.05;11.52;;;;;;;;;;5033193;28;20033;-61
2023/12/18 10:48:52;;;;;;;18.38;9.55;;;;;;;;;;5021314;28;20036;-60
2023/12/18 10:51:20;;;;;;;20.67;9.75;;;;;;;;;;5015628;28;20088;-58
2023/12/18 10:53:48;;;;;;;17.10;8.73;;;;;;;;;;5013693;28;20033;-61
2023/12/18 10:56:16;;;;;;;24.38;11.48;;;;;;;;;;5020329;28;20112;-62
2023/12/18 10:58:42;;;;;;;21.98;11.40;;;;;;;;;;5020579;28;20084;-61
2023/12/18 11:01:09;;;;;;;23.02;11.90;;;;;;;;;;5012718;28;20036;-62
2023/12/18 11:03:36;;;;;;;19.88;10.00;;;;;;;;;;5032680;28;20040;-60
2023/12/18 11:06:02;;;;;;;26.35;12.43;;;;;;;;;;5031087;28;20503;-62
2023/12/18 11:08:31;;;;;;;25.48;12.07;;;;;;;;;;5033274;28;20030;-62
2023/12/18 11:10:58;;;;;;;23.33;10.85;;;;;;;;;;5032165;28;20080;-62
2023/12/18 11:13:28;;;;;;;24.35;11.55;;;;;;;;;;5033269;28;20029;-62
2023/12/18 11:16:24;;;;;;;16.97;9.10;;;;;;;;;;5031540;28;20033;-63
2023/12/18 11:19:09;;;;;;;20.33;10.32;;;;;;;;;;5013609;28;20038;-61
2023/12/18 11:21:34;;;;;;;20.27;11.00;;;;;;;;;;5016107;28;20046;-61
2023/12/18 11:24:00;;;;;;;20.77;10.60;;;;;;;;;;5031724;28;20333;-62
2023/12/18 11:26:30;;;;;;;25.25;12.23;;;;;;;;;;5031700;28;20108;-62
2023/12/18 11:29:03;;;;;;;25.70;12.98;;;;;;;;;;5026633;28;20053;-63
2023/12/18 11:31:30;;;;;;;27.63;12.15;;;;;;;;;;5030892;28;20392;-62
2023/12/18 11:34:03;;;;;;;24.95;11.27;;;;;;;;;;5020271;28;20038;-62
2023/12/18 11:36:28;;;;;;;21.95;10.02;;;;;;;;;;5032589;28;20083;-62
2023/12/18 11:38:55;;;;;;;17.45;7.97;;;;;;;;;;5027502;28;20033;-64
2023/12/18 11:41:39;;;;;;;14.93;7.13;;;;;;;;;;5012262;28;20519;-63
2023/12/18 11:44:11;;;;;;;15.13;8.38;;;;;;;;;;5011639;28;20204;-62
2023/12/18 11:46:38;;;;;;;15.13;7.30;;;;;;;;;;5016781;28;20036;-61
2023/12/18 11:49:05;;;;;;;20.13;9.25;;;;;;;;;;5031206;28;20411;-61
2023/12/18 11:51:30;;;;;;;21.67;9.43;;;;;;;;;;5032267;28;20080;-61
2023/12/18 11:54:02;;;;;;;17.90;8.75;;;;;;;;;;5028549;28;20415;-61
2023/12/18 11:56:37;;;;;;;21.48;10.93;;;;;;;;;;5020864;28;20030;-62
2023/12/18 11:59:03;;;;;;;20.45;10.48;;;;;;;;;;5028672;28;20531;-62
2023/12/18 12:01:29;;;;;;;22.92;9.35;;;;;;;;;;5012243;28;20110;-60
2023/12/18 12:03:57;;;;;;;21.77;11.77;;;;;;;;;;5017165;28;20076;-60
2023/12/18 12:06:24;;;;;;;20.85;11.65;;;;;;;;;;5031892;28;20035;-61
2023/12/18 12:08:50;;;;;;;21.90;10.02;;;;;;;;;;5031621;28;20033;-62
2023/12/18 12:11:16;;;;;;;21.70;10.98;;;;;;;;;;5020916;28;20103;-61
2023/12/18 12:13:41;;;;;;;20.70;10.30;;;;;;;;;;5012047;28;20480;-61
2023/12/18 12:16:07;;;;;;;21.27;10.52;;;;;;;;;;5013394;28;20212;-61
2023/12/18 12:18:47;;;;;;;17.95;8.93;;;;;;;;;;5015770;28;20186;-61
2023/12/18 12:21:13;;;;;;;23.30;10.23;;;;;;;;;;5024027;28;20587;-61
2023/12/18 12:23:38;;;;;;;22.08;9.55;;;;;;;;;;5031724;28;20029;-61
2023/12/18 12:26:05;;;;;;;16.55;8.63;;;;;;;;;;5030672;28;20052;-61
2023/12/18 12:28:31;;;;;;;14.20;7.30;;;;;;;;;;5031178;28;20034;-61
2023/12/18 12:31:00;;;;;;;25.15;10.88;;;;;;;;;;5031240;28;20025;-61
2023/12/18 12:33:41;;;;;;;22.25;9.52;;;;;;;;;;5030250;28;20056;-61
2023/12/18 12:36:07;;;;;;;;;;;;;;;;;;5028504;28;20033;-61
2023/12/18 12:38:39;;;;;;;17.05;7.70;;;;;;;;;;5030919;28;19944;-61
2023/12/18 12:41:05;;;;;;;18.92;8.18;;;;;;;;;;5030565;28;20083;-62
2023/12/18 12:43:31;;;;;;;19.55;10.43;;;;;;;;;;5024972;28;20499;-61
2023/12/18 12:45:57;;;;;;;23.05;12.20;;;;;;;;;;5030971;28;20038;-61
2023/12/18 12:48:25;;;;;;;16.70;9.98;;;;;;;;;;5030793;28;20557;-60
2023/12/18 12:50:51;;;;;;;19.65;9.50;;;;;;;;;;5021965;28;20034;-62
2023/12/18 12:53:17;;;;;;;22.40;11.27;;;;;;;;;;5013202;28;20044;-62
2023/12/18 12:55:43;;;;;;;11.40;6.88;;;;;;;;;;5031239;28;20135;-61
2023/12/18 12:58:09;;;;;;;16.55;8.70;;;;;;;;;;5030365;28;20457;-61
2023/12/18 13:00:35;;;;;;;16.48;8.98;;;;;;;;;;5030961;28;20453;-61
2023/12/18 13:03:01;;;;;;;22.02;10.40;;;;;;;;;;5029296;28;20036;-61
2023/12/18 13:05:26;;;;;;;21.55;10.57;;;;;;;;;;5030606;28;20040;-61
2023/12/18 13:07:55;;;;;;;20.27;10.82;;;;;;;;;;5021406;28;20439;-61
2023/12/18 13:10:24;;;;;;;16.83;8.02;;;;;;;;;;5010813;28;20594;-61
2023/12/18 13:12:50;;;;;;;19.95;8.82;;;;;;;;;;5011182;28;20036;-61
2023/12/18 13:15:16;;;;;;;19.42;10.18;;;;;;;;;;5030685;28;20124;-61
2023/12/18 13:17:41;;;;;;;19.05;10.05;;;;;;;;;;5034969;28;20029;-61
2023/12/18 13:20:07;;;;;;;17.88;10.00;;;;;;;;;;5034080;28;20049;-61
2023/12/18 13:22:33;;;;;;;18.30;10.15;;;;;;;;;;5015684;28;20080;-61
2023/12/18 13:24:59;;;;;;;16.45;9.27;;;;;;;;;;5029369;28;20030;-61
2023/12/18 13:27:24;;;;;;;19.27;10.20;;;;;;;;;;5034027;28;20029;-60
2023/12/18 13:29:51;;;;;;;20.67;9.10;;;;;;;;;;5034887;28;20037;-60
2023/12/18 13:32:17;;;;;;;21.80;7.55;;;;;;;;;;5033614;28;20029;-61
2023/12/18 13:34:42;;;;;;;17.98;9.38;;;;;;;;;;5029559;28;20392;-65
2023/12/18 13:37:07;;;;;;;12.77;7.43;;;;;;;;;;5033651;28;20029;-62
2023/12/18 13:39:35;;;;;;;19.35;9.05;;;;;;;;;;5021513;28;20105;-61
2023/12/18 13:42:02;;;;;;;17.02;8.20;;;;;;;;;;5031577;28;20067;-61
2023/12/18 13:44:28;;;;;;;15.38;8.30;;;;;;;;;;5030019;28;20484;-61
2023/12/18 13:46:54;;;;;;;22.27;10.07;;;;;;;;;;5014784;28;20113;-61
2023/12/18 13:49:20;;;;;;;19.05;8.23;;;;;;;;;;5013675;28;20621;-61
2023/12/18 13:51:46;;;;;;;17.50;9.02;;;;;;;;;;5027921;28;20041;-61
2023/12/18 13:54:12;;;;;;;18.88;9.65;;;;;;;;;;5031617;28;20041;-60
2023/12/18 13:56:37;;;;;;;18.73;8.93;;;;;;;;;;5034265;28;20076;-61
2023/12/18 13:59:03;;;;;;;19.83;9.02;;;;;;;;;;5032682;28;20044;-62
2023/12/18 14:01:30;;;;;;;16.80;9.50;;;;;;;;;;5033830;28;20056;-60
2023/12/18 14:03:55;;;;;;;14.20;5.75;;;;;;;;;;5034002;28;20025;-60
2023/12/18 14:06:21;;;;;;;18.63;10.10;;;;;;;;;;5029752;28;20184;-61
2023/12/18 14:08:46;;;;;;;17.70;8.98;;;;;;;;;;5020314;28;20141;-60
2023/12/18 14:11:12;;;;;;;12.32;6.22;;;;;;;;;;5033539;28;20387;-60
2023/12/18 14:13:37;;;;;;;19.77;8.85;;;;;;;;;;5032671;28;20041;-60
2023/12/18 14:16:03;;;;;;;17.00;8.23;;;;;;;;;;5031903;28;20373;-62
2023/12/18 14:18:33;;;;;;;20.23;9.32;;;;;;;;;;5033857;28;20044;-62
2023/12/18 14:20:58;;;;;;;16.38;8.07;;;;;;;;;;5033462;28;20053;-62